createdAt,value
2017-11-15T00:00:29.385Z,18.00
2017-11-15T00:01:29.423Z,18.02
2017-11-15T00:02:29.459Z,18.04
2017-11-15T00:03:50.515Z,18.09
2017-11-15T00:04:29.539Z,18.27
2017-11-15T00:05:29.576Z,18.28
2017-11-15T00:06:29.615Z,18.29
2017-11-15T00:07:29.663Z,18.29
2017-11-15T00:08:29.704Z,18.31
2017-11-15T00:09:50.758Z,18.37
2017-11-15T00:10:29.777Z,18.42
2017-11-15T00:11:29.817Z,18.40
2017-11-15T00:12:29.855Z,18.39
2017-11-15T00:13:29.894Z,18.34
2017-11-15T00:14:29.935Z,18.42
2017-11-15T00:15:50.995Z,18.40
2017-11-15T00:16:30.017Z,18.47
2017-11-15T00:17:30.053Z,18.55
2017-11-15T00:18:30.101Z,18.52
2017-11-15T00:19:30.146Z,18.50
2017-11-15T00:20:30.175Z,18.55
2017-11-15T00:21:51.240Z,18.47
2017-11-15T00:22:30.265Z,18.50
2017-11-15T00:23:30.301Z,18.44
2017-11-15T00:24:30.336Z,18.46
2017-11-15T00:25:30.376Z,18.40
2017-11-15T00:26:30.424Z,18.43
2017-11-15T00:27:51.484Z,18.37
2017-11-15T00:28:30.500Z,18.44
2017-11-15T00:29:30.541Z,18.42
2017-11-15T00:30:30.577Z,18.40
2017-11-15T00:31:30.618Z,18.42
2017-11-15T00:32:30.658Z,18.43
2017-11-15T00:33:51.724Z,18.31
2017-11-15T00:34:30.742Z,18.25
2017-11-15T00:35:30.783Z,18.21
2017-11-15T00:36:30.819Z,18.29
2017-11-15T00:37:30.863Z,18.24
2017-11-15T00:38:30.907Z,18.24
2017-11-15T00:39:51.964Z,18.12
2017-11-15T00:40:30.984Z,18.07
2017-11-15T00:41:31.021Z,18.09
2017-11-15T00:42:31.058Z,18.10
2017-11-15T00:43:31.103Z,18.07
2017-11-15T00:44:31.142Z,18.10
2017-11-15T00:45:52.204Z,18.09
2017-11-15T00:46:31.224Z,18.06
2017-11-15T00:47:31.258Z,17.97
2017-11-15T00:48:31.307Z,18.00
2017-11-15T00:49:31.348Z,17.97
2017-11-15T00:50:31.385Z,17.99
2017-11-15T00:51:52.443Z,17.94
2017-11-15T00:52:31.482Z,17.95
2017-11-15T00:53:31.502Z,17.94
2017-11-15T00:54:31.549Z,17.95
2017-11-15T00:55:31.582Z,17.97
2017-11-15T00:56:31.623Z,17.89
2017-11-15T00:57:52.686Z,17.81
2017-11-15T00:58:31.701Z,17.87
2017-11-15T00:59:31.749Z,17.94
2017-11-15T01:00:31.788Z,17.87
2017-11-15T01:01:31.822Z,17.82
2017-11-15T01:02:31.869Z,17.81
2017-11-15T01:03:52.928Z,17.81
2017-11-15T01:04:31.950Z,17.79
2017-11-15T01:05:31.983Z,17.87
2017-11-15T01:06:32.028Z,17.81
2017-11-15T01:07:32.064Z,17.88
2017-11-15T01:08:32.101Z,17.85
2017-11-15T01:09:53.173Z,17.94
2017-11-15T01:10:32.190Z,17.95
2017-11-15T01:11:32.227Z,18.06
2017-11-15T01:12:32.270Z,18.09
2017-11-15T01:13:32.313Z,18.18
2017-11-15T01:14:32.345Z,18.09
2017-11-15T01:15:53.406Z,18.24
2017-11-15T01:16:32.432Z,18.21
2017-11-15T01:17:32.481Z,18.29
2017-11-15T01:18:32.509Z,18.39
2017-11-15T01:19:32.547Z,18.34
2017-11-15T01:20:32.584Z,18.39
2017-11-15T01:21:53.654Z,18.43
2017-11-15T01:22:32.665Z,18.44
2017-11-15T01:23:32.707Z,18.49
2017-11-15T01:24:32.753Z,18.54
2017-11-15T01:25:32.789Z,18.46
2017-11-15T01:26:32.832Z,18.57
2017-11-15T01:27:53.893Z,18.61
2017-11-15T01:28:32.906Z,18.58
2017-11-15T01:29:32.948Z,18.58
2017-11-15T01:30:32.987Z,18.57
2017-11-15T01:31:33.029Z,18.62
2017-11-15T01:32:33.068Z,18.62
2017-11-15T01:33:54.146Z,18.58
2017-11-15T01:34:33.152Z,18.59
2017-11-15T01:35:33.195Z,18.58
2017-11-15T01:36:33.225Z,18.58
2017-11-15T01:37:33.269Z,18.50
2017-11-15T01:38:33.310Z,18.58
2017-11-15T01:39:54.377Z,18.57
2017-11-15T01:40:33.386Z,18.55
2017-11-15T01:41:33.434Z,18.58
2017-11-15T01:42:33.471Z,18.58
2017-11-15T01:43:33.508Z,18.52
2017-11-15T01:44:33.551Z,18.52
2017-11-15T01:45:54.613Z,18.40
2017-11-15T01:46:33.633Z,18.44
2017-11-15T01:47:33.670Z,18.36
2017-11-15T01:48:33.713Z,18.43
2017-11-15T01:49:33.753Z,18.34
2017-11-15T01:50:33.790Z,18.29
2017-11-15T01:51:54.860Z,18.27
2017-11-15T01:52:33.872Z,18.28
2017-11-15T01:53:33.913Z,18.24
2017-11-15T01:54:33.950Z,18.27
2017-11-15T01:55:33.997Z,18.22
2017-11-15T01:56:34.036Z,18.04
2017-11-15T01:57:55.096Z,18.13
2017-11-15T01:58:34.116Z,18.07
2017-11-15T01:59:34.163Z,18.04
2017-11-15T02:00:34.197Z,18.00
2017-11-15T02:01:34.233Z,18.07
2017-11-15T02:02:34.279Z,18.02
2017-11-15T02:03:55.344Z,18.00
2017-11-15T02:04:34.357Z,18.00
2017-11-15T02:05:34.395Z,17.95
2017-11-15T02:06:34.453Z,18.02
2017-11-15T02:07:34.481Z,17.91
2017-11-15T02:08:34.561Z,17.84
2017-11-15T02:09:55.577Z,17.95
2017-11-15T02:10:34.594Z,17.89
2017-11-15T02:11:34.635Z,17.85
2017-11-15T02:12:34.674Z,17.81
2017-11-15T02:13:34.733Z,17.79
2017-11-15T02:14:34.761Z,17.82
2017-11-15T02:15:55.819Z,17.82
2017-11-15T02:16:34.884Z,17.74
2017-11-15T02:17:34.878Z,17.82
2017-11-15T02:18:34.918Z,17.87
2017-11-15T02:19:34.959Z,17.85
2017-11-15T02:20:35.003Z,17.94
2017-11-15T02:21:56.061Z,18.06
2017-11-15T02:22:35.090Z,18.06
2017-11-15T02:23:35.115Z,18.09
2017-11-15T02:24:35.158Z,18.18
2017-11-15T02:25:35.198Z,18.22
2017-11-15T02:26:35.248Z,18.24
2017-11-15T02:27:56.302Z,18.22
2017-11-15T02:28:35.316Z,18.36
2017-11-15T02:29:35.359Z,18.34
2017-11-15T02:30:35.401Z,18.42
2017-11-15T02:31:35.439Z,18.44
2017-11-15T02:32:35.482Z,18.49
2017-11-15T02:33:56.545Z,18.55
2017-11-15T02:34:35.562Z,18.54
2017-11-15T02:35:35.602Z,18.55
2017-11-15T02:36:35.639Z,18.61
2017-11-15T02:37:35.757Z,18.55
2017-11-15T02:38:35.719Z,18.59
2017-11-15T02:39:56.780Z,18.64
2017-11-15T02:40:35.804Z,18.67
2017-11-15T02:41:35.842Z,18.59
2017-11-15T02:42:35.884Z,18.67
2017-11-15T02:43:35.930Z,18.65
2017-11-15T02:44:35.967Z,18.67
2017-11-15T02:45:57.034Z,18.55
2017-11-15T02:46:36.046Z,18.67
2017-11-15T02:47:36.084Z,18.65
2017-11-15T02:48:36.124Z,18.62
2017-11-15T02:49:36.161Z,18.61
2017-11-15T02:50:36.276Z,18.58
2017-11-15T02:51:57.263Z,18.55
2017-11-15T02:52:36.290Z,18.61
2017-11-15T02:53:36.324Z,18.58
2017-11-15T02:54:36.364Z,18.52
2017-11-15T02:55:36.440Z,18.52
2017-11-15T02:56:36.444Z,18.55
2017-11-15T02:57:57.517Z,18.43
2017-11-15T02:58:36.528Z,18.43
2017-11-15T02:59:36.567Z,18.40
2017-11-15T03:00:36.606Z,18.39
2017-11-15T03:01:36.651Z,18.39
2017-11-15T03:02:36.693Z,18.25
2017-11-15T03:03:57.747Z,18.28
2017-11-15T03:04:36.779Z,18.29
2017-11-15T03:05:36.811Z,18.24
2017-11-15T03:06:36.849Z,18.07
2017-11-15T03:07:36.886Z,18.07
2017-11-15T03:08:36.934Z,18.10
2017-11-15T03:09:57.992Z,18.04
2017-11-15T03:10:37.012Z,18.09
2017-11-15T03:11:37.049Z,17.99
2017-11-15T03:12:37.101Z,17.97
2017-11-15T03:13:37.130Z,18.00
2017-11-15T03:14:37.169Z,17.95
2017-11-15T03:15:58.230Z,17.85
2017-11-15T03:16:37.254Z,17.88
2017-11-15T03:17:37.290Z,17.91
2017-11-15T03:18:37.330Z,17.91
2017-11-15T03:19:37.377Z,17.88
2017-11-15T03:20:37.417Z,17.84
2017-11-15T03:21:58.474Z,17.82
2017-11-15T03:22:37.494Z,17.81
2017-11-15T03:23:37.539Z,17.74
2017-11-15T03:24:37.577Z,17.81
2017-11-15T03:25:37.614Z,17.85
2017-11-15T03:26:37.657Z,17.88
2017-11-15T03:27:58.715Z,17.87
2017-11-15T03:28:37.732Z,17.91
2017-11-15T03:29:37.776Z,18.00
2017-11-15T03:30:37.816Z,18.00
2017-11-15T03:31:37.858Z,18.04
2017-11-15T03:32:37.891Z,18.10
2017-11-15T03:33:58.968Z,18.21
2017-11-15T03:34:37.974Z,18.24
2017-11-15T03:35:38.010Z,18.28
2017-11-15T03:36:38.058Z,18.37
2017-11-15T03:37:38.094Z,18.34
2017-11-15T03:38:38.135Z,18.40
2017-11-15T03:39:59.203Z,18.40
2017-11-15T03:40:38.223Z,18.46
2017-11-15T03:41:38.268Z,18.44
2017-11-15T03:42:38.300Z,18.49
2017-11-15T03:43:38.334Z,18.52
2017-11-15T03:44:38.376Z,18.55
2017-11-15T03:45:59.443Z,18.61
2017-11-15T03:46:38.457Z,18.55
2017-11-15T03:47:38.499Z,18.61
2017-11-15T03:48:38.537Z,18.54
2017-11-15T03:49:38.576Z,18.62
2017-11-15T03:50:38.615Z,18.61
2017-11-15T03:51:59.680Z,18.65
2017-11-15T03:52:38.698Z,18.65
2017-11-15T03:53:38.743Z,18.64
2017-11-15T03:54:38.779Z,18.58
2017-11-15T03:55:38.813Z,18.62
2017-11-15T03:56:38.857Z,18.61
2017-11-15T03:57:59.929Z,18.55
2017-11-15T03:58:38.938Z,18.59
2017-11-15T03:59:38.981Z,18.59
2017-11-15T04:00:39.016Z,18.49
2017-11-15T04:01:39.059Z,18.59
2017-11-15T04:02:39.103Z,18.50
2017-11-15T04:04:00.160Z,18.49
2017-11-15T04:04:39.181Z,18.40
2017-11-15T04:05:39.225Z,18.49
2017-11-15T04:06:39.266Z,18.43
2017-11-15T04:07:39.307Z,18.39
2017-11-15T04:08:39.346Z,18.34
2017-11-15T04:10:00.424Z,18.34
2017-11-15T04:10:39.424Z,18.25
2017-11-15T04:11:39.462Z,18.22
2017-11-15T04:12:39.500Z,18.22
2017-11-15T04:13:39.545Z,18.24
2017-11-15T04:14:39.585Z,18.21
2017-11-15T04:16:00.652Z,18.17
2017-11-15T04:16:39.664Z,18.15
2017-11-15T04:17:39.703Z,18.03
2017-11-15T04:18:39.747Z,18.12
2017-11-15T04:19:39.788Z,18.00
2017-11-15T04:20:39.829Z,17.99
2017-11-15T04:22:00.889Z,18.00
2017-11-15T04:22:39.910Z,17.95
2017-11-15T04:23:39.946Z,17.94
2017-11-15T04:24:39.988Z,17.87
2017-11-15T04:25:40.033Z,17.88
2017-11-15T04:26:40.072Z,17.82
2017-11-15T04:28:01.128Z,17.82
2017-11-15T04:28:40.146Z,17.84
2017-11-15T04:29:40.186Z,17.78
2017-11-15T04:30:40.230Z,17.79
2017-11-15T04:31:40.266Z,17.89
2017-11-15T04:32:40.306Z,17.87
2017-11-15T04:34:01.377Z,17.92
2017-11-15T04:34:40.387Z,17.97
2017-11-15T04:35:40.433Z,17.89
2017-11-15T04:36:40.466Z,18.00
2017-11-15T04:37:40.509Z,18.09
2017-11-15T04:38:40.547Z,18.10
2017-11-15T04:40:01.609Z,18.21
2017-11-15T04:40:40.629Z,18.17
2017-11-15T04:41:40.713Z,18.33
2017-11-15T04:42:40.711Z,18.28
2017-11-15T04:43:40.752Z,18.34
2017-11-15T04:44:40.788Z,18.39
2017-11-15T04:46:01.857Z,18.42
2017-11-15T04:46:40.870Z,18.44
2017-11-15T04:47:40.907Z,18.52
2017-11-15T04:48:40.950Z,18.49
2017-11-15T04:49:40.989Z,18.55
2017-11-15T04:50:41.030Z,18.61
2017-11-15T04:52:02.099Z,18.59
2017-11-15T04:52:41.111Z,18.57
2017-11-15T04:53:41.158Z,18.59
2017-11-15T04:54:41.197Z,18.59
2017-11-15T04:55:41.232Z,18.67
2017-11-15T04:56:41.275Z,18.61
2017-11-15T04:58:02.342Z,18.52
2017-11-15T04:58:41.352Z,18.62
2017-11-15T04:59:41.398Z,18.52
2017-11-15T05:00:41.430Z,18.61
2017-11-15T05:01:41.482Z,18.61
2017-11-15T05:02:41.516Z,18.58
2017-11-15T05:04:02.574Z,18.62
2017-11-15T05:04:41.596Z,18.65
2017-11-15T05:05:41.637Z,18.62
2017-11-15T05:06:41.679Z,18.54
2017-11-15T05:07:41.714Z,18.54
2017-11-15T05:08:41.770Z,18.61
2017-11-15T05:10:02.821Z,18.59
2017-11-15T05:10:41.847Z,18.58
2017-11-15T05:11:41.873Z,18.55
2017-11-15T05:12:41.919Z,18.58
2017-11-15T05:13:41.956Z,18.54
2017-11-15T05:14:41.994Z,18.52
2017-11-15T05:16:03.058Z,18.47
2017-11-15T05:16:42.080Z,18.37
2017-11-15T05:17:42.116Z,18.46
2017-11-15T05:18:42.160Z,18.36
2017-11-15T05:19:42.202Z,18.34
2017-11-15T05:20:42.235Z,18.22
2017-11-15T05:22:03.306Z,18.25
2017-11-15T05:22:42.325Z,18.25
2017-11-15T05:23:42.360Z,18.10
2017-11-15T05:24:42.396Z,18.10
2017-11-15T05:25:42.444Z,18.13
2017-11-15T05:26:42.481Z,18.06
2017-11-15T05:28:03.542Z,18.04
2017-11-15T05:28:42.559Z,18.04
2017-11-15T05:29:42.607Z,17.97
2017-11-15T05:30:42.645Z,17.95
2017-11-15T05:31:42.700Z,17.95
2017-11-15T05:32:42.724Z,17.94
2017-11-15T05:34:03.786Z,17.89
2017-11-15T05:34:42.802Z,17.82
2017-11-15T05:35:42.845Z,17.89
2017-11-15T05:36:42.882Z,17.84
2017-11-15T05:37:42.926Z,17.84
2017-11-15T05:38:42.965Z,17.78
2017-11-15T05:40:04.026Z,17.78
2017-11-15T05:40:43.221Z,17.81
2017-11-15T05:41:43.088Z,17.78
2017-11-15T05:42:43.124Z,17.73
2017-11-15T05:43:43.170Z,17.70
2017-11-15T05:44:43.204Z,17.70
2017-11-15T05:46:04.270Z,17.74
2017-11-15T05:46:43.286Z,17.71
2017-11-15T05:47:43.328Z,17.69
2017-11-15T05:48:43.365Z,17.79
2017-11-15T05:49:43.403Z,17.67
2017-11-15T05:50:43.449Z,17.78
2017-11-15T05:52:04.506Z,17.81
2017-11-15T05:52:43.526Z,17.70
2017-11-15T05:53:43.564Z,17.79
2017-11-15T05:54:43.610Z,17.94
2017-11-15T05:55:43.646Z,17.91
2017-11-15T05:56:43.687Z,17.94
2017-11-15T05:58:04.748Z,17.89
2017-11-15T05:58:43.766Z,18.00
2017-11-15T05:59:43.804Z,18.04
2017-11-15T06:00:43.846Z,18.03
2017-11-15T06:01:43.884Z,18.09
2017-11-15T06:02:44.015Z,18.10
2017-11-15T06:04:04.993Z,18.19
2017-11-15T06:04:44.005Z,18.24
2017-11-15T06:05:44.050Z,18.24
2017-11-15T06:06:44.085Z,18.31
2017-11-15T06:07:44.136Z,18.21
2017-11-15T06:08:44.165Z,18.29
2017-11-15T06:10:05.306Z,18.22
2017-11-15T06:10:44.290Z,18.25
2017-11-15T06:11:44.423Z,18.22
2017-11-15T06:12:44.436Z,18.25
2017-11-15T06:13:44.405Z,18.22
2017-11-15T06:14:44.433Z,18.18
2017-11-15T06:16:05.576Z,18.28
2017-11-15T06:16:44.590Z,18.28
2017-11-15T06:17:44.644Z,18.19
2017-11-15T06:18:44.625Z,18.25
2017-11-15T06:19:44.667Z,18.24
2017-11-15T06:20:44.688Z,18.22
2017-11-15T06:22:05.738Z,18.24
2017-11-15T06:22:44.778Z,18.10
2017-11-15T06:23:44.836Z,18.07
2017-11-15T06:24:44.833Z,18.13
2017-11-15T06:25:44.940Z,18.07
2017-11-15T06:26:44.886Z,18.13
2017-11-15T06:28:06.072Z,18.09
2017-11-15T06:28:44.971Z,18.03
2017-11-15T06:29:45.127Z,18.03
2017-11-15T06:30:45.170Z,18.07
2017-11-15T06:31:45.207Z,18.03
2017-11-15T06:32:45.205Z,18.09
2017-11-15T06:34:06.317Z,17.97
2017-11-15T06:34:45.305Z,17.99
2017-11-15T06:35:45.250Z,17.94
2017-11-15T06:36:45.374Z,17.91
2017-11-15T06:37:45.420Z,17.82
2017-11-15T06:38:45.379Z,17.85
2017-11-15T06:40:06.462Z,17.79
2017-11-15T06:40:45.567Z,17.81
2017-11-15T06:41:45.499Z,17.78
2017-11-15T06:42:45.533Z,17.88
2017-11-15T06:43:45.571Z,17.63
2017-11-15T06:44:45.615Z,17.62
2017-11-15T06:46:06.874Z,17.50
2017-11-15T06:46:45.918Z,17.50
2017-11-15T06:47:45.760Z,17.46
2017-11-15T06:48:45.777Z,17.44
2017-11-15T06:49:45.855Z,17.44
2017-11-15T06:50:45.908Z,17.44
2017-11-15T06:52:07.010Z,17.50
2017-11-15T06:52:45.937Z,17.64
2017-11-15T06:53:46.047Z,17.63
2017-11-15T06:54:46.010Z,17.74
2017-11-15T06:55:46.049Z,17.84
2017-11-15T06:56:46.091Z,17.97
2017-11-15T06:58:07.154Z,18.03
2017-11-15T06:58:46.176Z,18.18
2017-11-15T06:59:46.215Z,18.27
2017-11-15T07:00:46.250Z,18.47
2017-11-15T07:01:46.298Z,18.54
2017-11-15T07:02:46.335Z,18.68
2017-11-15T07:04:07.391Z,18.77
2017-11-15T07:04:46.448Z,18.82
2017-11-15T07:05:46.457Z,18.92
2017-11-15T07:06:46.502Z,18.99
2017-11-15T07:07:46.537Z,19.11
2017-11-15T07:08:46.682Z,19.20
2017-11-15T07:10:07.635Z,19.29
2017-11-15T07:10:46.659Z,19.25
2017-11-15T07:11:46.702Z,19.32
2017-11-15T07:12:46.739Z,19.38
2017-11-15T07:13:46.782Z,19.40
2017-11-15T07:14:46.818Z,19.32
2017-11-15T07:16:07.877Z,19.32
2017-11-15T07:16:47.941Z,19.39
2017-11-15T07:17:46.935Z,19.39
2017-11-15T07:18:46.980Z,19.36
2017-11-15T07:19:47.011Z,19.36
2017-11-15T07:20:47.060Z,19.43
2017-11-15T07:22:08.133Z,19.43
2017-11-15T07:22:47.150Z,19.42
2017-11-15T07:23:47.335Z,19.54
2017-11-15T07:24:47.221Z,19.51
2017-11-15T07:25:47.261Z,19.47
2017-11-15T07:26:47.310Z,19.43
2017-11-15T07:28:08.370Z,19.51
2017-11-15T07:28:47.392Z,19.46
2017-11-15T07:29:47.434Z,19.42
2017-11-15T07:30:47.462Z,19.36
2017-11-15T07:31:47.521Z,19.38
2017-11-15T07:32:47.554Z,19.39
2017-11-15T07:34:08.618Z,19.36
2017-11-15T07:34:47.644Z,19.36
2017-11-15T07:35:47.713Z,19.32
2017-11-15T07:36:47.715Z,19.31
2017-11-15T07:37:47.758Z,19.36
2017-11-15T07:38:47.796Z,19.35
2017-11-15T07:40:08.853Z,19.25
2017-11-15T07:40:47.881Z,19.36
2017-11-15T07:41:47.929Z,19.35
2017-11-15T07:42:47.950Z,19.33
2017-11-15T07:43:48.003Z,19.39
2017-11-15T07:44:48.306Z,19.40
2017-11-15T07:46:09.365Z,19.46
2017-11-15T07:46:48.298Z,19.43
2017-11-15T07:47:48.184Z,19.40
2017-11-15T07:48:48.203Z,19.43
2017-11-15T07:49:48.260Z,19.40
2017-11-15T07:50:48.298Z,19.46
2017-11-15T07:52:09.344Z,19.50
2017-11-15T07:52:48.366Z,19.50
2017-11-15T07:53:48.407Z,19.53
2017-11-15T07:54:48.448Z,19.50
2017-11-15T07:55:48.489Z,19.51
2017-11-15T07:56:49.581Z,19.42
2017-11-15T07:58:09.920Z,19.60
2017-11-15T07:58:48.625Z,19.48
2017-11-15T07:59:48.662Z,19.48
2017-11-15T08:00:48.699Z,19.54
2017-11-15T08:01:48.756Z,19.55
2017-11-15T08:02:48.783Z,19.48
2017-11-15T08:04:11.362Z,19.50
2017-11-15T08:04:48.874Z,19.51
2017-11-15T08:05:48.901Z,19.54
2017-11-15T08:06:48.954Z,19.48
2017-11-15T08:07:49.073Z,19.50
2017-11-15T08:08:49.126Z,19.54
2017-11-15T08:10:10.092Z,19.51
2017-11-15T08:10:49.106Z,19.58
2017-11-15T08:11:49.161Z,19.54
2017-11-15T08:12:49.198Z,19.53
2017-11-15T08:13:49.245Z,19.50
2017-11-15T08:14:49.284Z,19.51
2017-11-15T08:16:10.336Z,19.51
2017-11-15T08:16:49.477Z,19.54
2017-11-15T08:17:49.392Z,19.50
2017-11-15T08:18:49.447Z,19.63
2017-11-15T08:19:49.488Z,19.58
2017-11-15T08:20:49.575Z,19.65
2017-11-15T08:22:10.589Z,19.65
2017-11-15T08:22:49.617Z,19.63
2017-11-15T08:23:49.649Z,19.60
2017-11-15T08:24:49.682Z,19.75
2017-11-15T08:25:49.722Z,19.70
2017-11-15T08:26:49.941Z,19.69
2017-11-15T08:28:10.831Z,19.70
2017-11-15T08:28:49.853Z,19.73
2017-11-15T08:29:50.124Z,19.73
2017-11-15T08:30:49.934Z,19.84
2017-11-15T08:31:49.997Z,19.79
2017-11-15T08:32:50.017Z,19.79
2017-11-15T08:34:11.079Z,19.69
2017-11-15T08:34:50.097Z,19.80
2017-11-15T08:35:50.154Z,19.84
2017-11-15T08:36:50.205Z,19.78
2017-11-15T08:37:50.285Z,19.87
2017-11-15T08:38:50.261Z,19.70
2017-11-15T08:40:11.320Z,19.79
2017-11-15T08:40:50.393Z,19.83
2017-11-15T08:41:50.439Z,19.78
2017-11-15T08:42:50.465Z,19.86
2017-11-15T08:43:50.461Z,19.88
2017-11-15T08:44:50.513Z,19.88
2017-11-15T08:46:11.588Z,19.91
2017-11-15T08:46:50.588Z,19.76
2017-11-15T08:47:50.663Z,19.76
2017-11-15T08:48:50.676Z,19.79
2017-11-15T08:49:50.747Z,19.76
2017-11-15T08:50:50.757Z,19.72
2017-11-15T08:52:11.824Z,19.88
2017-11-15T08:52:50.837Z,19.76
2017-11-15T08:53:50.893Z,19.88
2017-11-15T08:54:50.931Z,19.90
2017-11-15T08:55:50.970Z,19.90
2017-11-15T08:56:51.016Z,19.95
2017-11-15T08:58:12.101Z,19.95
2017-11-15T08:58:51.702Z,19.94
2017-11-15T08:59:51.127Z,19.94
2017-11-15T09:00:51.176Z,19.95
2017-11-15T09:01:51.210Z,19.94
2017-11-15T09:02:51.258Z,20.02
2017-11-15T09:04:12.350Z,20.03
2017-11-15T09:04:51.344Z,20.03
2017-11-15T09:05:51.382Z,20.02
2017-11-15T09:06:51.421Z,20.08
2017-11-15T09:07:51.467Z,20.05
2017-11-15T09:08:51.504Z,20.08
2017-11-15T09:10:12.616Z,20.00
2017-11-15T09:10:51.619Z,20.05
2017-11-15T09:11:51.639Z,19.93
2017-11-15T09:12:51.847Z,19.93
2017-11-15T09:13:51.718Z,19.95
2017-11-15T09:14:51.893Z,19.88
2017-11-15T09:16:12.881Z,19.87
2017-11-15T09:16:51.848Z,19.94
2017-11-15T09:17:51.918Z,19.87
2017-11-15T09:18:51.922Z,19.88
2017-11-15T09:19:51.966Z,19.93
2017-11-15T09:20:52.013Z,19.83
2017-11-15T09:22:13.069Z,19.90
2017-11-15T09:22:52.085Z,19.94
2017-11-15T09:23:52.125Z,19.94
2017-11-15T09:24:52.163Z,20.00
2017-11-15T09:25:52.210Z,19.97
2017-11-15T09:26:52.254Z,19.90
2017-11-15T09:28:13.334Z,19.91
2017-11-15T09:28:52.332Z,19.95
2017-11-15T09:29:52.379Z,19.93
2017-11-15T09:30:52.423Z,19.94
2017-11-15T09:31:52.574Z,19.91
2017-11-15T09:32:52.504Z,19.93
2017-11-15T09:34:13.669Z,19.91
2017-11-15T09:34:52.600Z,19.87
2017-11-15T09:35:52.622Z,19.86
2017-11-15T09:36:52.746Z,19.93
2017-11-15T09:37:52.781Z,19.98
2017-11-15T09:38:52.818Z,19.88
2017-11-15T09:40:14.658Z,19.95
2017-11-15T09:40:53.004Z,19.87
2017-11-15T09:41:53.023Z,20.00
2017-11-15T09:42:53.066Z,19.98
2017-11-15T09:43:53.128Z,19.93
2017-11-15T09:44:53.190Z,19.91
2017-11-15T09:46:14.167Z,19.97
2017-11-15T09:46:53.367Z,19.94
2017-11-15T09:47:53.273Z,19.97
2017-11-15T09:48:53.262Z,19.97
2017-11-15T09:49:53.252Z,19.98
2017-11-15T09:50:53.363Z,19.95
2017-11-15T09:52:14.317Z,20.02
2017-11-15T09:52:53.326Z,19.94
2017-11-15T09:53:53.998Z,19.97
2017-11-15T09:54:53.629Z,20.02
2017-11-15T09:55:54.447Z,19.98
2017-11-15T09:56:53.655Z,20.06
2017-11-15T09:58:14.722Z,20.06
2017-11-15T09:58:53.804Z,20.08
2017-11-15T09:59:53.773Z,20.02
2017-11-15T10:00:53.829Z,20.05
2017-11-15T10:01:53.729Z,20.02
2017-11-15T10:02:53.748Z,20.03
2017-11-15T10:04:14.885Z,20.05
2017-11-15T10:04:53.900Z,20.02
2017-11-15T10:05:54.617Z,19.98
2017-11-15T10:06:53.980Z,19.90
2017-11-15T10:07:54.088Z,19.84
2017-11-15T10:08:55.399Z,19.76
2017-11-15T10:10:15.122Z,19.66
2017-11-15T10:10:54.234Z,19.68
2017-11-15T10:11:54.444Z,19.57
2017-11-15T10:12:54.318Z,19.50
2017-11-15T10:13:55.272Z,19.51
2017-11-15T10:14:54.481Z,19.65
2017-11-15T10:16:15.570Z,19.66
2017-11-15T10:16:54.451Z,19.69
2017-11-15T10:17:54.604Z,19.73
2017-11-15T10:18:54.604Z,19.83
2017-11-15T10:19:54.656Z,19.86
2017-11-15T10:20:54.700Z,19.93
2017-11-15T10:22:15.745Z,19.91
2017-11-15T10:22:54.864Z,20.05
2017-11-15T10:23:54.621Z,20.10
2017-11-15T10:24:54.671Z,20.25
2017-11-15T10:25:54.711Z,20.28
2017-11-15T10:26:54.759Z,20.43
2017-11-15T10:28:15.816Z,20.43
2017-11-15T10:28:54.837Z,20.51
2017-11-15T10:29:54.865Z,20.64
2017-11-15T10:30:54.916Z,20.76
2017-11-15T10:31:54.954Z,20.87
2017-11-15T10:32:54.999Z,20.95
2017-11-15T10:34:16.078Z,21.04
2017-11-15T10:34:55.082Z,21.08
2017-11-15T10:35:55.138Z,21.14
2017-11-15T10:36:55.178Z,21.26
2017-11-15T10:37:55.207Z,21.34
2017-11-15T10:38:55.249Z,21.46
2017-11-15T10:40:16.316Z,21.44
2017-11-15T10:40:55.324Z,21.54
2017-11-15T10:41:55.376Z,21.64
2017-11-15T10:42:55.428Z,21.61
2017-11-15T10:43:55.464Z,21.79
2017-11-15T10:44:55.494Z,21.75
2017-11-15T10:46:16.666Z,21.85
2017-11-15T10:46:55.585Z,21.91
2017-11-15T10:47:55.635Z,21.95
2017-11-15T10:48:55.679Z,22.04
2017-11-15T10:49:55.719Z,22.02
2017-11-15T10:50:55.747Z,22.13
2017-11-15T10:52:16.821Z,22.23
2017-11-15T10:52:55.841Z,22.23
2017-11-15T10:53:55.876Z,22.27
2017-11-15T10:54:55.928Z,22.37
2017-11-15T10:55:55.965Z,22.39
2017-11-15T10:56:56.002Z,22.44
2017-11-15T10:58:17.101Z,22.47
2017-11-15T10:58:56.097Z,22.54
2017-11-15T10:59:56.126Z,22.60
2017-11-15T11:00:56.180Z,22.59
2017-11-15T11:01:56.218Z,22.60
2017-11-15T11:02:57.237Z,22.71
2017-11-15T11:04:17.332Z,22.68
2017-11-15T11:04:56.343Z,22.69
2017-11-15T11:05:56.393Z,22.69
2017-11-15T11:06:56.432Z,22.74
2017-11-15T11:07:56.479Z,22.80
2017-11-15T11:08:56.515Z,22.72
2017-11-15T11:10:17.586Z,22.72
2017-11-15T11:10:56.600Z,22.77
2017-11-15T11:11:56.650Z,22.74
2017-11-15T11:12:56.689Z,22.83
2017-11-15T11:13:56.739Z,22.89
2017-11-15T11:14:56.796Z,22.87
2017-11-15T11:16:17.839Z,22.94
2017-11-15T11:16:58.236Z,22.97
2017-11-15T11:17:56.905Z,23.07
2017-11-15T11:18:56.948Z,23.14
2017-11-15T11:19:57.013Z,23.14
2017-11-15T11:20:57.044Z,23.24
2017-11-15T11:22:18.110Z,23.15
2017-11-15T11:22:57.125Z,23.23
2017-11-15T11:23:57.169Z,23.22
2017-11-15T11:24:57.210Z,23.24
2017-11-15T11:25:57.251Z,23.23
2017-11-15T11:26:57.321Z,23.27
2017-11-15T11:28:18.362Z,23.22
2017-11-15T11:28:57.385Z,23.19
2017-11-15T11:29:57.479Z,23.12
2017-11-15T11:30:57.474Z,23.19
2017-11-15T11:31:57.523Z,23.19
2017-11-15T11:32:57.565Z,23.24
2017-11-15T11:34:18.632Z,23.19
2017-11-15T11:34:57.698Z,23.27
2017-11-15T11:35:57.691Z,23.27
2017-11-15T11:36:57.735Z,23.24
2017-11-15T11:37:58.005Z,23.23
2017-11-15T11:38:57.843Z,23.19
2017-11-15T11:40:18.907Z,23.23
2017-11-15T11:40:57.926Z,23.20
2017-11-15T11:41:57.974Z,23.15
2017-11-15T11:42:58.226Z,23.12
2017-11-15T11:43:58.195Z,23.17
2017-11-15T11:44:58.104Z,23.17
2017-11-15T11:46:19.194Z,23.14
2017-11-15T11:46:58.184Z,23.08
2017-11-15T11:47:58.223Z,23.05
2017-11-15T11:48:58.456Z,23.15
2017-11-15T11:49:58.314Z,23.11
2017-11-15T11:50:58.363Z,23.14
2017-11-15T11:52:19.472Z,23.09
2017-11-15T11:52:58.452Z,23.02
2017-11-15T11:53:58.497Z,23.05
2017-11-15T11:54:59.773Z,23.05
2017-11-15T11:55:58.686Z,23.09
2017-11-15T11:56:58.627Z,23.02
2017-11-15T11:58:19.707Z,23.07
2017-11-15T11:58:58.730Z,22.96
2017-11-15T11:59:58.756Z,23.01
2017-11-15T12:00:58.802Z,22.92
2017-11-15T12:01:58.848Z,22.78
2017-11-15T12:02:58.903Z,22.80
2017-11-15T12:04:19.988Z,22.65
2017-11-15T12:04:58.979Z,22.68
2017-11-15T12:05:59.024Z,22.71
2017-11-15T12:06:59.084Z,22.69
2017-11-15T12:07:59.127Z,22.65
2017-11-15T12:08:59.167Z,22.71
2017-11-15T12:10:20.236Z,22.74
2017-11-15T12:10:59.282Z,22.80
2017-11-15T12:11:59.299Z,22.75
2017-11-15T12:12:59.364Z,22.75
2017-11-15T12:13:59.383Z,22.80
2017-11-15T12:14:59.445Z,22.71
2017-11-15T12:16:20.521Z,22.75
2017-11-15T12:16:59.516Z,22.78
2017-11-15T12:17:59.578Z,22.74
2017-11-15T12:18:59.608Z,22.77
2017-11-15T12:19:59.656Z,22.80
2017-11-15T12:20:59.692Z,22.78
2017-11-15T12:22:20.768Z,22.74
2017-11-15T12:22:59.790Z,22.83
2017-11-15T12:23:59.838Z,22.77
2017-11-15T12:24:59.873Z,22.84
2017-11-15T12:25:59.924Z,22.90
2017-11-15T12:26:59.981Z,22.93
2017-11-15T12:28:21.039Z,22.99
2017-11-15T12:29:00.059Z,22.89
2017-11-15T12:30:00.105Z,22.90
2017-11-15T12:31:00.146Z,22.90
2017-11-15T12:32:00.227Z,22.94
2017-11-15T12:33:00.232Z,22.97
2017-11-15T12:34:21.314Z,22.96
2017-11-15T12:35:00.322Z,22.90
2017-11-15T12:36:00.373Z,22.94
2017-11-15T12:37:00.413Z,22.86
2017-11-15T12:38:00.459Z,22.90
2017-11-15T12:39:00.509Z,22.90
2017-11-15T12:40:21.576Z,22.89
2017-11-15T12:41:00.601Z,22.99
2017-11-15T12:42:00.703Z,22.96
2017-11-15T12:43:00.685Z,22.94
2017-11-15T12:44:00.786Z,22.97
2017-11-15T12:45:00.784Z,22.97
2017-11-15T12:46:21.849Z,22.97
2017-11-15T12:47:00.863Z,23.05
2017-11-15T12:48:00.966Z,23.11
2017-11-15T12:49:00.960Z,23.09
2017-11-15T12:50:01.040Z,23.20
2017-11-15T12:51:01.044Z,23.14
2017-11-15T12:52:22.354Z,23.15
2017-11-15T12:53:01.175Z,23.23